Aérodrome :
LOGIN :

S'inscrire | Disclaimer

   EN    FR    IT 

 










Légende :    VFR   VFR Marginal   IFR   IFR Intensif   IFR Très Intensif
Visi : 
Plafond : 
>= 8 km
>= 3000ft
5 à 8 km
1000 à 3000 ft
1500m à 5 km
500 à 1000 ft
800 à 1500m
200 à 500 ft
< 800m
< 200 ft
Symboles :   Orages  Brouillard  Fortes neiges  Fortes précipitations  Vent > 20 kt
SIGMETs :   Divers  Orages  Givrage  Turbulence  Onde Orograph.  Cendres Volcan.







- Altitude de l'aérodrome : 458 ft
- Voir les cartes d'approche


LFSI - St-Dizier

DERNIER METAR :
  • 101400Z AUTO 30009KT 9999 SCT023 BKN032 BKN043 09/03 Q1026

METARs EXPIRÉS :
  • 101330Z AUTO 32012KT 9999 BKN023/// BKN040/// OVC048/// ///TCU 10/03 Q1026
  • 101300Z AUTO 30013KT 270V330 9999 BKN019/// BKN031/// BKN037/// ///TCU 10/04 Q1025
  • 101230Z AUTO 30010KT 9999 BKN017/// BKN022/// OVC050/// ///TCU 09/04 Q1026
  • 101200Z AUTO 27009KT 9999 BKN015 BKN020 BKN027 08/05 Q1026
  • 101130Z AUTO 27009KT 9999 BKN014 BKN023 OVC047 08/06 Q1026

TAF TAF LFSI
Valide du 10 à 09h jusqu'au 11 à 09h UTC


100800Z 1009/1109 26007KT 9999 BKN015 BKN040
TEMPO 1009/1012 BKN005
Pas de NOTAMs connus pour ce terrain.



MET'MAP, la Météo Aéronautique d'un coup d'oeil ! - Copyright ORBIFLY Décembre 2007 - Disclaimer

ORBIFLY MET'MAP TEAM :

Programmation & Développement : Alexandra Zaïnal
Conception & Développement : Baudouin d'Aumeries
Co-Programmation & Développement : Marc-Olivier Méhu
Soutien technique & logistique : Manuel Goepfert

Contact : metmap@orbifly.com




SOURCES & CREDITS :

   NOAA